createdAt,value
2022-11-09T05:59:25.212Z,0.857143
2022-11-09T06:00:25.246Z,0.857143
2022-11-09T06:01:25.300Z,1.71429
2022-11-09T06:02:25.361Z,1.71429
2022-11-09T06:03:25.344Z,2.5
2022-11-09T06:04:25.380Z,2.5
2022-11-09T06:05:25.410Z,3.35714
2022-11-09T06:06:25.474Z,5.85714
2022-11-09T06:07:25.475Z,6.71429
2022-11-09T06:08:25.516Z,7.5
2022-11-09T06:09:25.541Z,9.21429
2022-11-09T06:10:25.568Z,9.21429
2022-11-09T06:11:25.623Z,10
2022-11-09T06:12:25.640Z,10
2022-11-09T06:13:25.677Z,10.8571
2022-11-09T06:14:25.708Z,10.8571
2022-11-09T06:15:25.743Z,11.7143
2022-11-09T06:16:25.790Z,12.5
2022-11-09T06:17:25.804Z,14.2143
2022-11-09T06:18:25.859Z,15.8571
2022-11-09T06:19:25.873Z,16.7143
2022-11-09T06:20:25.910Z,17.5
2022-11-09T06:21:25.931Z,18.3571
2022-11-09T06:22:25.984Z,19.2143
2022-11-09T06:23:25.998Z,20
2022-11-09T06:24:26.033Z,20
2022-11-09T06:25:26.090Z,20.8571
2022-11-09T06:26:26.101Z,22.5
2022-11-09T06:27:26.134Z,23.3571
2022-11-09T06:28:26.185Z,25
2022-11-09T06:29:26.207Z,25.8571
2022-11-09T06:30:26.261Z,27.5
2022-11-09T06:31:26.280Z,28.3571
2022-11-09T06:32:26.352Z,30.8571
2022-11-09T06:33:26.322Z,33.3571
2022-11-09T06:34:26.378Z,35.8571
2022-11-09T06:35:26.393Z,36.7143
2022-11-09T06:36:26.428Z,37.5
2022-11-09T06:37:26.457Z,37.5
2022-11-09T06:38:26.503Z,36.7143
2022-11-09T06:39:26.516Z,36.7143
2022-11-09T06:40:26.553Z,36.7143
2022-11-09T06:41:26.583Z,37.5
2022-11-09T06:42:26.664Z,39.2143
2022-11-09T06:43:26.667Z,40
2022-11-09T06:44:26.676Z,41.7143
2022-11-09T06:45:26.715Z,42.5
2022-11-09T06:46:26.755Z,42.5
2022-11-09T06:47:26.791Z,43.3571
2022-11-09T06:48:26.847Z,45.8571
2022-11-09T06:49:26.859Z,48.3571
2022-11-09T06:50:26.903Z,50
2022-11-09T06:51:26.926Z,53.3571
2022-11-09T06:52:26.956Z,57.5
2022-11-09T06:53:27.032Z,61.7143
2022-11-09T06:54:27.039Z,65.8571
2022-11-09T06:55:27.061Z,70
2022-11-09T06:56:27.083Z,76.7143
2022-11-09T06:57:27.113Z,87.5
2022-11-09T06:58:27.169Z,103.357
2022-11-09T06:59:27.172Z,120.857
2022-11-09T07:00:27.209Z,135
2022-11-09T07:01:27.345Z,148.357
2022-11-09T07:02:27.296Z,161.714
2022-11-09T07:03:27.299Z,169.214
2022-11-09T07:04:27.336Z,176.714
2022-11-09T07:05:27.367Z,184.214
2022-11-09T07:06:27.447Z,190.857
2022-11-09T07:07:28.149Z,195
2022-11-09T07:08:27.459Z,200.857
2022-11-09T07:09:27.484Z,213.357
2022-11-09T07:10:27.538Z,225
2022-11-09T07:11:27.548Z,235
2022-11-09T07:12:27.599Z,245
2022-11-09T07:13:27.616Z,251.714
2022-11-09T07:14:27.650Z,258.357
2022-11-09T07:15:27.694Z,256.714
2022-11-09T07:16:27.700Z,237.5
2022-11-09T07:17:27.732Z,207.5
2022-11-09T07:18:27.770Z,187.5
2022-11-09T07:19:27.799Z,178.357
2022-11-09T07:20:27.856Z,183.357
2022-11-09T07:21:27.871Z,199.214
2022-11-09T07:22:27.919Z,226.714
2022-11-09T07:23:27.933Z,274.214
2022-11-09T07:24:27.960Z,326.714
2022-11-09T07:25:27.988Z,365
2022-11-09T07:26:28.017Z,395
2022-11-09T07:27:28.534Z,429.214
2022-11-09T07:28:28.083Z,460
2022-11-09T07:29:28.100Z,490.857
2022-11-09T07:30:28.138Z,533.357
2022-11-09T07:31:28.175Z,570
2022-11-09T07:33:02.072Z,595
2022-11-09T07:33:28.238Z,586.714
2022-11-09T07:34:28.268Z,578.357
2022-11-09T07:35:28.301Z,575
2022-11-09T07:36:28.336Z,531.714
2022-11-09T07:37:28.388Z,488.357
2022-11-09T07:38:28.397Z,493.357
2022-11-09T07:39:28.428Z,512.5
2022-11-09T07:40:28.622Z,558.357
2022-11-09T07:41:33.517Z,658.357
2022-11-09T07:42:28.539Z,718.357
2022-11-09T07:43:28.547Z,755.857
2022-11-09T07:44:28.580Z,714.214
2022-11-09T07:45:28.615Z,665.857
2022-11-09T07:46:28.672Z,595.857
2022-11-09T07:47:28.677Z,530
2022-11-09T07:48:28.704Z,460.857
2022-11-09T07:49:28.743Z,432.5
2022-11-09T07:50:28.861Z,398.357
2022-11-09T07:51:28.849Z,387.5
2022-11-09T07:52:28.841Z,390.857
2022-11-09T07:53:28.864Z,456.714
2022-11-09T07:54:28.900Z,499.214
2022-11-09T07:55:28.952Z,600.857
2022-11-09T07:56:28.958Z,747.5
2022-11-09T07:57:28.985Z,997.5
2022-11-09T07:58:29.022Z,1148.36
2022-11-09T07:59:29.059Z,1134.21
2022-11-09T08:00:29.206Z,1141.71
2022-11-09T08:01:29.143Z,948.357
2022-11-09T08:02:29.190Z,739.214
2022-11-09T08:03:29.194Z,746.714
2022-11-09T08:04:29.232Z,505
2022-11-09T08:05:29.261Z,419.214
2022-11-09T08:06:29.363Z,553.357
2022-11-09T08:07:29.320Z,562.5
2022-11-09T08:08:29.356Z,510.857
2022-11-09T08:09:29.391Z,498.357
2022-11-09T08:10:29.502Z,400.857
2022-11-09T08:11:29.472Z,321.714
2022-11-09T08:12:32.981Z,312.5
2022-11-09T08:13:29.517Z,347.5
2022-11-09T08:14:29.543Z,387.5
2022-11-09T08:15:29.572Z,431.714
2022-11-09T08:16:34.847Z,500.857
2022-11-09T08:17:29.658Z,586.714
2022-11-09T08:18:29.677Z,680.857
2022-11-09T08:19:29.705Z,736.714
2022-11-09T08:20:29.757Z,740
2022-11-09T08:21:29.774Z,742.5
2022-11-09T08:22:29.832Z,747.5
2022-11-09T08:23:29.832Z,800.857
2022-11-09T08:24:29.867Z,816.714
2022-11-09T08:25:29.919Z,805.857
2022-11-09T08:26:29.950Z,810.857
2022-11-09T08:27:29.971Z,802.5
2022-11-09T08:28:30.028Z,784.214
2022-11-09T08:29:30.032Z,778.357
2022-11-09T08:30:30.074Z,758.357
2022-11-09T08:31:30.106Z,725.857
2022-11-09T08:32:30.137Z,720.857
2022-11-09T08:33:30.187Z,682.5
2022-11-09T08:34:30.194Z,660
2022-11-09T08:35:30.247Z,553.357
2022-11-09T08:36:30.252Z,505.857
2022-11-09T08:37:30.309Z,521.714
2022-11-09T08:38:30.318Z,535
2022-11-09T08:39:30.353Z,536.714
2022-11-09T08:40:30.376Z,513.357
2022-11-09T08:41:30.409Z,499.214
2022-11-09T08:42:30.445Z,485.857
2022-11-09T08:43:30.473Z,525.857
2022-11-09T08:44:30.527Z,580
2022-11-09T08:45:30.578Z,626.714
2022-11-09T08:46:30.568Z,701.714
2022-11-09T08:47:30.604Z,769.214
2022-11-09T08:48:30.629Z,790.857
2022-11-09T08:49:30.668Z,801.714
2022-11-09T08:50:30.717Z,801.714
2022-11-09T08:51:30.720Z,795.857
2022-11-09T08:52:30.749Z,818.357
2022-11-09T08:53:30.785Z,853.357
2022-11-09T08:54:30.809Z,863.357
2022-11-09T08:55:30.851Z,850
2022-11-09T08:56:30.864Z,838.357
2022-11-09T08:57:30.899Z,853.357
2022-11-09T08:58:30.939Z,855
2022-11-09T08:59:30.983Z,831.714
2022-11-09T09:00:31.036Z,800
2022-11-09T09:01:31.057Z,769.214
2022-11-09T09:02:31.050Z,759.214
2022-11-09T09:03:31.087Z,767.5
2022-11-09T09:04:31.109Z,783.357
2022-11-09T09:05:31.162Z,807.5
2022-11-09T09:06:31.580Z,854.214
2022-11-09T09:07:31.226Z,915.857
2022-11-09T09:08:31.252Z,975.857
2022-11-09T09:09:31.273Z,1032.5
2022-11-09T09:10:31.319Z,1100.86
2022-11-09T09:11:31.335Z,1185
2022-11-09T09:12:31.361Z,1270.86
2022-11-09T09:13:31.424Z,1309.21
2022-11-09T09:14:31.434Z,1327.5
2022-11-09T09:15:31.462Z,1360
2022-11-09T09:16:31.494Z,1406.71
2022-11-09T09:17:31.523Z,1495.86
2022-11-09T09:18:31.578Z,1553.36
2022-11-09T09:19:31.585Z,1590
2022-11-09T09:20:31.643Z,1620
2022-11-09T09:21:31.654Z,1672.5
2022-11-09T09:22:31.686Z,1669.21
2022-11-09T09:23:31.714Z,1625
2022-11-09T09:24:31.748Z,1560.86
2022-11-09T09:25:31.793Z,1500.86
2022-11-09T09:26:31.803Z,1494.21
2022-11-09T09:27:31.839Z,1463.36
2022-11-09T09:28:31.869Z,1408.36
2022-11-09T09:29:31.903Z,1342.5
2022-11-09T09:30:31.947Z,1306.71
2022-11-09T09:31:31.952Z,1255.86
2022-11-09T09:32:31.989Z,1231.71
2022-11-09T09:33:32.017Z,1252.5
2022-11-09T09:34:32.048Z,1344.21
2022-11-09T09:35:32.103Z,1408.36
2022-11-09T09:36:32.113Z,1480
2022-11-09T09:37:32.170Z,1473.36
2022-11-09T09:38:32.176Z,1507.5
2022-11-09T09:39:32.219Z,1468.36
2022-11-09T09:40:32.238Z,1431.71
2022-11-09T09:41:32.270Z,1406.71
2022-11-09T09:42:32.323Z,1310.86
2022-11-09T09:43:32.337Z,1229.21
2022-11-09T09:44:32.361Z,1126.71
2022-11-09T09:45:32.392Z,1025
2022-11-09T09:46:32.438Z,931.714
2022-11-09T09:47:32.452Z,940.857
2022-11-09T09:48:32.500Z,910.857
2022-11-09T09:49:32.510Z,827.5
2022-11-09T09:50:32.648Z,784.214
2022-11-09T09:51:32.583Z,752.5
2022-11-09T09:52:32.637Z,727.5
2022-11-09T09:53:32.647Z,723.357
2022-11-09T09:54:32.691Z,731.714
2022-11-09T09:55:32.726Z,724.214
2022-11-09T09:56:32.769Z,715.857
2022-11-09T09:57:35.409Z,693.357
2022-11-09T09:58:32.824Z,740
2022-11-09T09:59:32.869Z,798.357
2022-11-09T10:00:32.879Z,806.714
2022-11-09T10:01:32.911Z,859.214
2022-11-09T10:02:32.958Z,913.357
2022-11-09T10:03:32.968Z,970
2022-11-09T10:04:33.077Z,1101.71
2022-11-09T10:05:33.026Z,1174.21
2022-11-09T10:06:33.108Z,1205.86
2022-11-09T10:07:33.094Z,1190.86
2022-11-09T10:08:33.138Z,1193.36
2022-11-09T10:09:33.147Z,1241.71
2022-11-09T10:10:33.197Z,1262.5
2022-11-09T10:11:33.218Z,1233.36
2022-11-09T10:12:33.230Z,1130.86
2022-11-09T10:13:33.263Z,1061.71
2022-11-09T10:14:33.294Z,1053.36
2022-11-09T10:15:33.338Z,1184.21
2022-11-09T10:16:33.354Z,1137.5
2022-11-09T10:17:33.383Z,960
2022-11-09T10:18:33.412Z,941.714
2022-11-09T10:19:33.450Z,1002.5
2022-11-09T10:20:33.485Z,857.5
2022-11-09T10:21:33.510Z,794.214
2022-11-09T10:22:33.552Z,744.214
2022-11-09T10:23:33.562Z,722.5
2022-11-09T10:24:33.599Z,916.714
2022-11-09T10:25:57.857Z,1103.36
2022-11-09T10:26:33.657Z,1204.21
2022-11-09T10:27:33.704Z,1294.21
2022-11-09T10:28:54.314Z,1265.86
2022-11-09T10:29:33.750Z,1385
2022-11-09T10:30:33.796Z,1508.36
2022-11-09T10:31:33.840Z,1538.36
2022-11-09T10:32:33.869Z,1568.36
2022-11-09T10:33:33.878Z,1466.71
2022-11-09T10:34:33.906Z,1271.71
2022-11-09T10:35:33.935Z,1142.5
2022-11-09T10:36:33.983Z,1049.21
2022-11-09T10:37:34.006Z,970.857
2022-11-09T10:38:34.036Z,1000
2022-11-09T10:39:34.064Z,1010.86
2022-11-09T10:40:34.100Z,1046.71
2022-11-09T10:41:34.144Z,1086.71
2022-11-09T10:42:34.157Z,809.214
2022-11-09T10:43:34.184Z,655.857
2022-11-09T10:44:34.212Z,643.357
2022-11-09T10:45:34.263Z,620
2022-11-09T10:46:34.288Z,620.857
2022-11-09T10:47:34.320Z,627.5
2022-11-09T10:48:34.347Z,665
2022-11-09T10:49:34.404Z,684.214
2022-11-09T10:50:34.419Z,701.714
2022-11-09T10:51:34.441Z,693.357
2022-11-09T10:52:34.472Z,687.5
2022-11-09T10:53:34.500Z,675
2022-11-09T10:54:34.536Z,655
2022-11-09T10:55:34.565Z,642.5
2022-11-09T10:56:47.346Z,630
2022-11-09T10:57:34.623Z,625.857
2022-11-09T10:58:34.656Z,622.5
2022-11-09T10:59:34.690Z,610
2022-11-09T11:00:34.724Z,603.357
2022-11-09T11:01:34.883Z,598.357
2022-11-09T11:02:34.787Z,599.214
2022-11-09T11:03:34.814Z,687.5
2022-11-09T11:04:34.847Z,710
2022-11-09T11:05:34.906Z,717.5
2022-11-09T11:06:34.959Z,727.5
2022-11-09T11:07:34.946Z,819.214
2022-11-09T11:08:34.983Z,1076.71
2022-11-09T11:09:35.017Z,1514.21
2022-11-09T11:10:35.075Z,1726.71
2022-11-09T11:11:36.455Z,1675.86
2022-11-09T11:12:35.118Z,1309.21
2022-11-09T11:13:35.172Z,1121.71
2022-11-09T11:14:35.205Z,1085.86
2022-11-09T11:15:35.221Z,780.857
2022-11-09T11:16:35.259Z,700.857
2022-11-09T11:17:35.290Z,655
2022-11-09T11:18:35.344Z,668.357
2022-11-09T11:19:35.368Z,645
2022-11-09T11:20:35.409Z,685
2022-11-09T11:21:35.413Z,633.357
2022-11-09T11:22:35.448Z,625.857
2022-11-09T11:23:35.476Z,711.714
2022-11-09T11:24:35.525Z,1008.36
2022-11-09T11:25:35.529Z,1567.5
2022-11-09T11:26:35.559Z,1738.36
2022-11-09T11:27:35.598Z,1718.36
2022-11-09T11:28:35.631Z,1490
2022-11-09T11:29:35.684Z,1163.36
2022-11-09T11:30:35.689Z,1128.36
2022-11-09T11:31:35.725Z,1036.71
2022-11-09T11:32:35.756Z,1104.21
2022-11-09T11:33:35.781Z,815
2022-11-09T11:34:58.431Z,670.857
2022-11-09T11:35:35.852Z,635
2022-11-09T11:36:35.878Z,640
2022-11-09T11:37:35.944Z,628.357
2022-11-09T11:38:35.944Z,616.714
2022-11-09T11:39:35.975Z,598.357
2022-11-09T11:40:36.024Z,568.357
2022-11-09T11:41:36.035Z,554.214
2022-11-09T11:42:36.066Z,576.714
2022-11-09T11:43:36.092Z,600.857
2022-11-09T11:44:36.139Z,680
2022-11-09T11:45:40.663Z,780
2022-11-09T11:46:36.194Z,536.714
2022-11-09T11:47:36.225Z,889.214
2022-11-09T11:48:36.255Z,882.5
2022-11-09T11:49:36.290Z,891.714
2022-11-09T11:50:36.338Z,932.5
2022-11-09T11:51:36.338Z,910
2022-11-09T11:52:36.380Z,951.714
2022-11-09T11:53:40.683Z,992.5
2022-11-09T11:54:36.454Z,939.214
2022-11-09T11:55:36.466Z,855.857
2022-11-09T11:56:36.493Z,785.857
2022-11-09T11:57:36.519Z,735.857
2022-11-09T11:58:36.550Z,700
2022-11-09T11:59:36.600Z,724.214
2022-11-09T12:00:36.614Z,690
2022-11-09T12:01:36.655Z,650.857
2022-11-09T12:02:36.734Z,606.714
2022-11-09T12:03:36.708Z,600.857
2022-11-09T12:04:36.753Z,587.5
2022-11-09T12:05:36.785Z,597.5
2022-11-09T12:06:38.578Z,604.214
2022-11-09T12:07:36.864Z,617.5
2022-11-09T12:08:36.878Z,641.714
2022-11-09T12:09:36.895Z,647.5
2022-11-09T12:10:36.931Z,608.357
2022-11-09T12:11:36.961Z,595
2022-11-09T12:12:37.016Z,610.857
2022-11-09T12:13:37.030Z,629.214
2022-11-09T12:14:37.091Z,649.214
2022-11-09T12:15:37.100Z,822.5
2022-11-09T12:16:37.132Z,1170.86
2022-11-09T12:17:37.195Z,1517.5
2022-11-09T12:18:37.202Z,1475.86
2022-11-09T12:19:37.235Z,1285
2022-11-09T12:20:37.261Z,1246.71
2022-11-09T12:21:37.289Z,1311.71
2022-11-09T12:22:37.337Z,1296.71
2022-11-09T12:23:37.374Z,1238.36
2022-11-09T12:24:37.388Z,1267.5
2022-11-09T12:25:37.419Z,1415
2022-11-09T12:26:37.446Z,1312.5
2022-11-09T12:27:37.484Z,1152.5
2022-11-09T12:28:37.544Z,989.214
2022-11-09T12:29:37.573Z,920
2022-11-09T12:30:37.563Z,1015
2022-11-09T12:31:37.593Z,789.214
2022-11-09T12:32:37.618Z,693.357
2022-11-09T12:33:42.890Z,609.214
2022-11-09T12:34:37.704Z,592.5
2022-11-09T12:35:37.814Z,612.5
2022-11-09T12:36:37.735Z,570
2022-11-09T12:37:37.775Z,538.357
2022-11-09T12:38:37.799Z,557.5
2022-11-09T12:39:37.852Z,535
2022-11-09T12:40:37.863Z,835
2022-11-09T12:41:37.896Z,590
2022-11-09T12:42:37.923Z,540.857
2022-11-09T12:43:37.951Z,545.857
2022-11-09T12:44:38.007Z,545
2022-11-09T12:45:38.017Z,600.857
2022-11-09T12:46:38.054Z,630
2022-11-09T12:47:38.062Z,747.5
2022-11-09T12:48:38.094Z,512.5
2022-11-09T12:49:38.129Z,535
2022-11-09T12:50:38.153Z,497.5
2022-11-09T12:51:38.211Z,467.5
2022-11-09T12:52:38.233Z,447.5
2022-11-09T12:53:38.268Z,467.5
2022-11-09T12:54:38.320Z,486.714
2022-11-09T12:55:38.327Z,500.857
2022-11-09T12:56:38.354Z,534.214
2022-11-09T12:57:38.401Z,526.714
2022-11-09T12:58:38.405Z,527.5
2022-11-09T12:59:38.435Z,515
2022-11-09T13:00:38.464Z,482.5
2022-11-09T13:01:38.550Z,470
2022-11-09T13:02:38.532Z,502.5
2022-11-09T13:03:38.566Z,514.214
2022-11-09T13:04:38.584Z,530.857
2022-11-09T13:05:38.644Z,555.857
2022-11-09T13:06:38.717Z,561.714
2022-11-09T13:07:38.671Z,563.357
2022-11-09T13:08:38.707Z,573.357
2022-11-09T13:09:44.802Z,657.5
2022-11-09T13:10:38.773Z,700
2022-11-09T13:11:38.843Z,726.714
2022-11-09T13:12:38.839Z,704.214
2022-11-09T13:13:38.878Z,657.5
2022-11-09T13:14:38.909Z,656.714
2022-11-09T13:15:38.941Z,712.5
2022-11-09T13:16:38.984Z,723.357
2022-11-09T13:17:38.987Z,728.357
2022-11-09T13:18:44.273Z,667.5
2022-11-09T13:19:39.063Z,708.357
2022-11-09T13:20:54.725Z,694.214
2022-11-09T13:21:39.130Z,670.857
2022-11-09T13:22:39.147Z,673.357
2022-11-09T13:24:00.204Z,680.857
2022-11-09T13:24:39.212Z,686.714
2022-11-09T13:25:39.250Z,744.214
2022-11-09T13:26:39.273Z,833.357
2022-11-09T13:27:39.310Z,880.857
2022-11-09T13:28:39.362Z,786.714
2022-11-09T13:29:39.381Z,736.714
2022-11-09T13:30:39.437Z,755
2022-11-09T13:31:39.463Z,762.5
2022-11-09T13:32:39.488Z,782.5
2022-11-09T13:33:39.528Z,784.214
2022-11-09T13:34:39.585Z,777.5
2022-11-09T13:35:39.619Z,768.357
2022-11-09T13:36:39.633Z,775.857
2022-11-09T13:37:39.658Z,759.214
2022-11-09T13:38:39.680Z,748.357
2022-11-09T13:39:39.710Z,741.714
2022-11-09T13:40:39.737Z,745
2022-11-09T13:41:39.790Z,755
2022-11-09T13:42:39.803Z,784.214
2022-11-09T13:43:39.835Z,804.214
2022-11-09T13:44:41.415Z,811.714
2022-11-09T13:45:39.903Z,850.857
2022-11-09T13:46:39.959Z,828.357
2022-11-09T13:47:39.968Z,751.714
2022-11-09T13:48:40.001Z,685.857
2022-11-09T13:49:40.037Z,616.714
2022-11-09T13:50:40.073Z,560
2022-11-09T13:51:40.121Z,541.714
2022-11-09T13:52:40.143Z,536.714
2022-11-09T13:53:40.160Z,507.5
2022-11-09T13:54:40.184Z,491.714
2022-11-09T13:55:40.226Z,482.5
2022-11-09T13:56:40.273Z,494.214
2022-11-09T13:57:40.282Z,469.214
2022-11-09T13:58:40.312Z,465
2022-11-09T13:59:40.340Z,461.714
2022-11-09T14:00:40.370Z,460.857
2022-11-09T14:01:40.474Z,442.5
2022-11-09T14:02:40.440Z,418.357
2022-11-09T14:03:40.466Z,401.714
2022-11-09T14:04:40.493Z,384.214
2022-11-09T14:05:40.514Z,368.357
2022-11-09T14:06:40.601Z,357.5
2022-11-09T14:07:40.621Z,348.357
2022-11-09T14:08:41.020Z,342.5
2022-11-09T14:09:40.666Z,340.857
2022-11-09T14:10:40.705Z,333.357
2022-11-09T14:11:40.720Z,325.857
2022-11-09T14:12:40.753Z,329.214
2022-11-09T14:13:40.780Z,328.357
2022-11-09T14:14:40.809Z,325
2022-11-09T14:15:40.868Z,326.714
2022-11-09T14:16:40.882Z,335
2022-11-09T14:17:40.911Z,333.357
2022-11-09T14:18:40.943Z,326.714
2022-11-09T14:19:40.993Z,316.714
2022-11-09T14:20:41.012Z,309.214
2022-11-09T14:21:41.045Z,305
2022-11-09T14:22:41.067Z,298.357
2022-11-09T14:23:41.120Z,276.714
2022-11-09T14:24:41.133Z,259.214
2022-11-09T14:25:41.166Z,257.5
2022-11-09T14:26:41.189Z,258.357
2022-11-09T14:27:41.222Z,255
2022-11-09T14:28:41.247Z,256.714
2022-11-09T14:29:41.280Z,263.357
2022-11-09T14:30:41.317Z,264.214
2022-11-09T14:31:45.130Z,270
2022-11-09T14:32:41.368Z,268.357
2022-11-09T14:33:41.401Z,262.5
2022-11-09T14:34:41.432Z,258.357
2022-11-09T14:35:41.459Z,254.214
2022-11-09T14:36:41.512Z,255.857
2022-11-09T14:37:41.543Z,261.714
2022-11-09T14:38:41.562Z,258.357
2022-11-09T14:39:41.595Z,248.357
2022-11-09T14:40:41.656Z,236.714
2022-11-09T14:41:41.670Z,230
2022-11-09T14:42:46.013Z,220
2022-11-09T14:43:41.735Z,207.5
2022-11-09T14:44:41.760Z,194.214
2022-11-09T14:45:41.814Z,184.214
2022-11-09T14:46:41.851Z,184.214
2022-11-09T14:47:41.871Z,187.5
2022-11-09T14:48:44.985Z,184.214
2022-11-09T14:49:41.939Z,180
2022-11-09T14:50:41.969Z,177.5
2022-11-09T14:51:41.986Z,180.857
2022-11-09T14:52:42.019Z,174.214
2022-11-09T14:53:42.063Z,162.5
2022-11-09T14:54:44.832Z,155.857
2022-11-09T14:55:42.153Z,152.5
2022-11-09T14:56:42.160Z,148.357
2022-11-09T14:57:42.197Z,145
2022-11-09T14:58:42.221Z,138.357
2022-11-09T14:59:42.258Z,130
2022-11-09T15:00:45.946Z,125
2022-11-09T15:01:42.332Z,119.214
2022-11-09T15:02:42.387Z,110
2022-11-09T15:03:42.399Z,103.357
2022-11-09T15:04:42.495Z,100
2022-11-09T15:05:42.467Z,96.7143
2022-11-09T15:06:45.149Z,92.5
2022-11-09T15:07:42.565Z,89.2143
2022-11-09T15:08:42.569Z,86.7143
2022-11-09T15:09:42.599Z,83.3571
2022-11-09T15:10:42.692Z,80
2022-11-09T15:11:42.660Z,75.8571
2022-11-09T15:12:46.382Z,71.7143
2022-11-09T15:13:42.742Z,67.5
2022-11-09T15:14:42.753Z,64.2143
2022-11-09T15:15:42.781Z,61.7143
2022-11-09T15:16:42.805Z,58.3571
2022-11-09T15:17:43.848Z,55
2022-11-09T15:18:42.899Z,51.7143
2022-11-09T15:19:42.906Z,48.3571
2022-11-09T15:20:42.956Z,44.2143
2022-11-09T15:21:42.977Z,40.8571
2022-11-09T15:22:43.000Z,38.3571
2022-11-09T15:23:43.046Z,35.8571
2022-11-09T15:24:46.152Z,32.5
2022-11-09T15:25:43.104Z,30
2022-11-09T15:26:43.122Z,27.5
2022-11-09T15:27:43.146Z,25
2022-11-09T15:28:43.171Z,22.5
2022-11-09T15:29:43.227Z,20.8571
2022-11-09T15:30:45.885Z,18.3571
2022-11-09T15:31:43.266Z,15.8571
2022-11-09T15:32:43.300Z,14.2143
2022-11-09T15:33:43.332Z,12.5
2022-11-09T15:34:43.379Z,10.8571
2022-11-09T15:35:43.391Z,10
2022-11-09T15:36:46.075Z,8.35714
2022-11-09T15:37:43.460Z,6.71429
2022-11-09T15:38:43.504Z,5.85714
2022-11-09T15:39:43.512Z,5
2022-11-09T15:40:43.564Z,4.21429
2022-11-09T15:41:43.577Z,3.35714
2022-11-09T15:42:46.217Z,2.5
2022-11-09T15:43:43.640Z,1.71429
2022-11-09T15:44:43.706Z,1.71429
2022-11-09T15:45:43.742Z,0.857143
2022-11-09T15:46:43.744Z,0.857143
2022-11-09T15:47:43.812Z,0.857143
